sensor_id;sensor_type;location;lat;lon;timestamp;pressure;altitude;pressure_sealevel;temperature;humidity
51849;BME280;38952;51.090;-1.832;2023-04-06T00:00:50;100279.53;;;8.70;100.00
51849;BME280;38952;51.090;-1.832;2023-04-06T00:03:16;100276.78;;;8.70;100.00
51849;BME280;38952;51.090;-1.832;2023-04-06T00:05:42;100276.25;;;8.68;100.00
51849;BME280;38952;51.090;-1.832;2023-04-06T00:08:11;100277.06;;;8.68;100.00
51849;BME280;38952;51.090;-1.832;2023-04-06T00:10:36;100274.59;;;8.67;100.00
51849;BME280;38952;51.090;-1.832;2023-04-06T00:13:02;100258.19;;;8.62;100.00
51849;BME280;38952;51.090;-1.832;2023-04-06T00:15:27;100252.47;;;8.63;100.00
51849;BME280;38952;51.090;-1.832;2023-04-06T00:17:53;100260.16;;;8.66;100.00
51849;BME280;38952;51.090;-1.832;2023-04-06T00:20:18;100262.66;;;8.73;100.00
51849;BME280;38952;51.090;-1.832;2023-04-06T00:22:44;100268.09;;;8.73;100.00
51849;BME280;38952;51.090;-1.832;2023-04-06T00:25:10;100257.41;;;8.66;100.00
51849;BME280;38952;51.090;-1.832;2023-04-06T00:27:36;100272.47;;;8.74;100.00
51849;BME280;38952;51.090;-1.832;2023-04-06T00:30:03;100248.97;;;8.68;100.00
51849;BME280;38952;51.090;-1.832;2023-04-06T00:32:30;100255.56;;;8.72;100.00
51849;BME280;38952;51.090;-1.832;2023-04-06T00:34:55;100259.44;;;8.76;100.00
51849;BME280;38952;51.090;-1.832;2023-04-06T00:37:21;100248.75;;;8.74;100.00
51849;BME280;38952;51.090;-1.832;2023-04-06T00:39:46;100255.09;;;8.80;100.00
51849;BME280;38952;51.090;-1.832;2023-04-06T00:42:12;100257.28;;;8.83;100.00
51849;BME280;38952;51.090;-1.832;2023-04-06T00:44:41;100246.38;;;8.83;100.00
51849;BME280;38952;51.090;-1.832;2023-04-06T00:47:07;100244.25;;;8.85;100.00
51849;BME280;38952;51.090;-1.832;2023-04-06T00:49:33;100244.25;;;8.85;100.00
51849;BME280;38952;51.090;-1.832;2023-04-06T00:51:59;100233.31;;;8.85;100.00
51849;BME280;38952;51.090;-1.832;2023-04-06T00:54:25;100239.91;;;8.89;100.00
51849;BME280;38952;51.090;-1.832;2023-04-06T00:56:51;100224.56;;;8.83;100.00
51849;BME280;38952;51.090;-1.832;2023-04-06T00:59:16;100221.28;;;8.81;100.00
51849;BME280;38952;51.090;-1.832;2023-04-06T01:01:42;100211.19;;;8.82;100.00
51849;BME280;38952;51.090;-1.832;2023-04-06T01:04:08;100210.69;;;8.85;100.00
51849;BME280;38952;51.090;-1.832;2023-04-06T01:06:34;100207.41;;;8.83;100.00
51849;BME280;38952;51.090;-1.832;2023-04-06T01:08:59;100212.31;;;8.86;100.00
51849;BME280;38952;51.090;-1.832;2023-04-06T01:11:25;100198.66;;;8.81;100.00
51849;BME280;38952;51.090;-1.832;2023-04-06T01:13:54;100198.94;;;8.84;100.00
51849;BME280;38952;51.090;-1.832;2023-04-06T01:16:20;100215.41;;;8.95;100.00
51849;BME280;38952;51.090;-1.832;2023-04-06T01:18:48;100194.56;;;8.83;100.00
51849;BME280;38952;51.090;-1.832;2023-04-06T01:21:13;100195.16;;;8.85;100.00
51849;BME280;38952;51.090;-1.832;2023-04-06T01:23:49;100182.84;;;8.78;100.00
51849;BME280;38952;51.090;-1.832;2023-04-06T01:26:15;100192.38;;;8.80;100.00
51849;BME280;38952;51.090;-1.832;2023-04-06T01:28:43;100180.31;;;8.71;100.00
51849;BME280;38952;51.090;-1.832;2023-04-06T01:31:09;100175.13;;;8.69;100.00
51849;BME280;38952;51.090;-1.832;2023-04-06T01:33:35;100175.13;;;8.69;100.00
51849;BME280;38952;51.090;-1.832;2023-04-06T01:36:02;100175.41;;;8.73;100.00
51849;BME280;38952;51.090;-1.832;2023-04-06T01:38:27;100168.31;;;8.72;100.00
51849;BME280;38952;51.090;-1.832;2023-04-06T01:40:53;100164.50;;;8.73;100.00
51849;BME280;38952;51.090;-1.832;2023-04-06T01:43:19;100168.88;;;8.74;100.00
51849;BME280;38952;51.090;-1.832;2023-04-06T01:45:44;100160.19;;;8.77;100.00
51849;BME280;38952;51.090;-1.832;2023-04-06T01:48:11;100154.44;;;8.73;100.00
51849;BME280;38952;51.090;-1.832;2023-04-06T01:50:36;100156.38;;;8.78;100.00
51849;BME280;38952;51.090;-1.832;2023-04-06T01:53:02;100153.66;;;8.78;100.00
51849;BME280;38952;51.090;-1.832;2023-04-06T01:55:27;100156.97;;;8.85;100.00
51849;BME280;38952;51.090;-1.832;2023-04-06T01:57:55;100142.19;;;8.76;100.00
51849;BME280;38952;51.090;-1.832;2023-04-06T02:00:24;100138.97;;;8.84;100.00
51849;BME280;38952;51.090;-1.832;2023-04-06T02:02:52;100140.63;;;8.85;100.00
51849;BME280;38952;51.090;-1.832;2023-04-06T02:05:18;100138.97;;;8.84;100.00
51849;BME280;38952;51.090;-1.832;2023-04-06T02:07:56;100128.91;;;8.85;100.00
51849;BME280;38952;51.090;-1.832;2023-04-06T02:10:21;100154.34;;;9.01;100.00
51849;BME280;38952;51.090;-1.832;2023-04-06T02:12:47;100133.59;;;8.95;100.00
51849;BME280;38952;51.090;-1.832;2023-04-06T02:15:12;100129.78;;;8.96;100.00
51849;BME280;38952;51.090;-1.832;2023-04-06T02:17:39;100144.03;;;9.08;100.00
51849;BME280;38952;51.090;-1.832;2023-04-06T02:20:05;100135.59;;;9.09;100.00
51849;BME280;38952;51.090;-1.832;2023-04-06T02:22:31;100137.00;;;9.17;100.00
51849;BME280;38952;51.090;-1.832;2023-04-06T02:25:03;100117.31;;;9.10;100.00
51849;BME280;38952;51.090;-1.832;2023-04-06T02:27:39;100112.94;;;9.09;100.00
51849;BME280;38952;51.090;-1.832;2023-04-06T02:30:05;100111.34;;;9.18;100.00
51849;BME280;38952;51.090;-1.832;2023-04-06T02:32:31;100124.50;;;9.26;100.00
51849;BME280;38952;51.090;-1.832;2023-04-06T02:34:56;100115.19;;;9.22;100.00
51849;BME280;38952;51.090;-1.832;2023-04-06T02:37:22;100106.97;;;9.12;100.00
51849;BME280;38952;51.090;-1.832;2023-04-06T02:39:51;100108.63;;;9.13;100.00
51849;BME280;38952;51.090;-1.832;2023-04-06T02:42:17;100111.94;;;9.20;100.00
51849;BME280;38952;51.090;-1.832;2023-04-06T02:44:47;100102.63;;;9.16;100.00
51849;BME280;38952;51.090;-1.832;2023-04-06T02:47:12;100107.00;;;9.22;100.00
51849;BME280;38952;51.090;-1.832;2023-04-06T02:49:40;100106.47;;;9.25;100.00
51849;BME280;38952;51.090;-1.832;2023-04-06T02:52:06;100108.66;;;9.23;100.00
51849;BME280;38952;51.090;-1.832;2023-04-06T02:54:31;100086.25;;;9.16;100.00
51849;BME280;38952;51.090;-1.832;2023-04-06T02:56:57;100093.66;;;9.21;100.00
51849;BME280;38952;51.090;-1.832;2023-04-06T02:59:22;100101.88;;;9.31;100.00
51849;BME280;38952;51.090;-1.832;2023-04-06T03:01:48;100099.16;;;9.31;100.00
51849;BME280;38952;51.090;-1.832;2023-04-06T03:04:13;100102.47;;;9.38;100.00
51849;BME280;38952;51.090;-1.832;2023-04-06T03:06:38;100100.56;;;9.39;100.00
51849;BME280;38952;51.090;-1.832;2023-04-06T03:09:06;100103.03;;;9.40;100.00
51849;BME280;38952;51.090;-1.832;2023-04-06T03:11:32;100098.38;;;9.41;100.00
51849;BME280;38952;51.090;-1.832;2023-04-06T03:14:02;100101.38;;;9.44;100.00
51849;BME280;38952;51.090;-1.832;2023-04-06T03:16:27;100096.72;;;9.40;100.00
51849;BME280;38952;51.090;-1.832;2023-04-06T03:19:10;100078.66;;;9.29;100.00
51849;BME280;38952;51.090;-1.832;2023-04-06T03:21:36;100072.13;;;9.24;100.00
51849;BME280;38952;51.090;-1.832;2023-04-06T03:24:01;100091.84;;;9.47;100.00
51849;BME280;38952;51.090;-1.832;2023-04-06T03:26:27;100069.13;;;9.31;100.00
51849;BME280;38952;51.090;-1.832;2023-04-06T03:28:52;100079.81;;;9.43;100.00
51849;BME280;38952;51.090;-1.832;2023-04-06T03:31:17;100094.63;;;9.52;100.00
51849;BME280;38952;51.090;-1.832;2023-04-06T03:33:43;100080.66;;;9.43;100.00
51849;BME280;38952;51.090;-1.832;2023-04-06T03:36:08;100076.00;;;9.44;100.00
51849;BME280;38952;51.090;-1.832;2023-04-06T03:38:34;100079.28;;;9.46;100.00
51849;BME280;38952;51.090;-1.832;2023-04-06T03:41:01;100076.56;;;9.41;100.00
51849;BME280;38952;51.090;-1.832;2023-04-06T03:43:27;100066.16;;;9.38;100.00
51849;BME280;38952;51.090;-1.832;2023-04-06T03:45:52;100045.88;;;9.18;100.00
51849;BME280;38952;51.090;-1.832;2023-04-06T03:48:18;100042.03;;;9.04;100.00
51849;BME280;38952;51.090;-1.832;2023-04-06T03:50:43;100051.81;;;9.00;100.00
51849;BME280;38952;51.090;-1.832;2023-04-06T03:53:11;100058.66;;;9.02;100.00
51849;BME280;38952;51.090;-1.832;2023-04-06T03:55:36;100050.69;;;9.01;100.00
51849;BME280;38952;51.090;-1.832;2023-04-06T03:58:02;100057.28;;;9.00;100.00
51849;BME280;38952;51.090;-1.832;2023-04-06T04:00:27;100055.84;;;8.92;100.00
51849;BME280;38952;51.090;-1.832;2023-04-06T04:02:53;100045.19;;;8.90;100.00
51849;BME280;38952;51.090;-1.832;2023-04-06T04:05:18;100046.31;;;8.89;100.00
51849;BME280;38952;51.090;-1.832;2023-04-06T04:07:44;100035.34;;;8.84;100.00
51849;BME280;38952;51.090;-1.832;2023-04-06T04:10:09;100012.38;;;8.70;100.00
51849;BME280;38952;51.090;-1.832;2023-04-06T04:12:35;100023.78;;;8.67;100.00
51849;BME280;38952;51.090;-1.832;2023-04-06T04:15:01;100030.84;;;8.58;100.00
51849;BME280;38952;51.090;-1.832;2023-04-06T04:17:28;100029.59;;;8.43;100.00
51849;BME280;38952;51.090;-1.832;2023-04-06T04:19:53;100042.75;;;8.46;100.00
51849;BME280;38952;51.090;-1.832;2023-04-06T04:22:18;100035.00;;;8.38;100.00
51849;BME280;38952;51.090;-1.832;2023-04-06T04:24:44;100036.66;;;8.39;100.00
51849;BME280;38952;51.090;-1.832;2023-04-06T04:27:10;100040.50;;;8.43;100.00
51849;BME280;38952;51.090;-1.832;2023-04-06T04:29:35;100041.13;;;8.50;100.00
51849;BME280;38952;51.090;-1.832;2023-04-06T04:32:00;100057.81;;;8.59;100.00
51849;BME280;38952;51.090;-1.832;2023-04-06T04:34:26;100064.94;;;8.60;100.00
51849;BME280;38952;51.090;-1.832;2023-04-06T04:36:52;100060.84;;;8.63;100.00
51849;BME280;38952;51.090;-1.832;2023-04-06T04:39:17;100054.28;;;8.59;100.00
51849;BME280;38952;51.090;-1.832;2023-04-06T04:41:43;100063.00;;;8.61;100.00
51849;BME280;38952;51.090;-1.832;2023-04-06T04:44:08;100050.44;;;8.54;100.00
51849;BME280;38952;51.090;-1.832;2023-04-06T04:46:34;100067.34;;;8.56;100.00
51849;BME280;38952;51.090;-1.832;2023-04-06T04:49:06;100056.84;;;8.43;100.00
51849;BME280;38952;51.090;-1.832;2023-04-06T04:51:34;100044.22;;;8.32;100.00
51849;BME280;38952;51.090;-1.832;2023-04-06T04:54:38;100066.72;;;8.44;100.00
51849;BME280;38952;51.090;-1.832;2023-04-06T04:57:06;100062.00;;;8.39;100.00
51849;BME280;38952;51.090;-1.832;2023-04-06T04:59:32;100048.81;;;8.26;100.00
51849;BME280;38952;51.090;-1.832;2023-04-06T05:01:57;100052.13;;;8.33;100.00
51849;BME280;38952;51.090;-1.832;2023-04-06T05:04:22;100053.78;;;8.34;100.00
51849;BME280;38952;51.090;-1.832;2023-04-06T05:06:48;100051.34;;;8.33;100.00
51849;BME280;38952;51.090;-1.832;2023-04-06T05:09:14;100047.47;;;8.29;100.00
51849;BME280;38952;51.090;-1.832;2023-04-06T05:11:40;100050.47;;;8.27;100.00
51849;BME280;38952;51.090;-1.832;2023-04-06T05:14:05;100059.75;;;8.31;100.00
51849;BME280;38952;51.090;-1.832;2023-04-06T05:16:34;100051.28;;;8.28;100.00
51849;BME280;38952;51.090;-1.832;2023-04-06T05:19:00;100051.34;;;8.33;100.00
51849;BME280;38952;51.090;-1.832;2023-04-06T05:21:25;100038.22;;;8.30;100.00
51849;BME280;38952;51.090;-1.832;2023-04-06T05:23:51;100030.53;;;8.21;100.00
51849;BME280;38952;51.090;-1.832;2023-04-06T05:26:17;100046.06;;;8.21;100.00
51849;BME280;38952;51.090;-1.832;2023-04-06T05:28:42;100034.22;;;8.05;100.00
51849;BME280;38952;51.090;-1.832;2023-04-06T05:31:12;100040.69;;;7.99;100.00
51849;BME280;38952;51.090;-1.832;2023-04-06T05:33:37;100049.63;;;7.94;100.00
51849;BME280;38952;51.090;-1.832;2023-04-06T05:36:03;100045.06;;;7.73;100.00
51849;BME280;38952;51.090;-1.832;2023-04-06T05:38:30;100042.50;;;7.61;100.00
51849;BME280;38952;51.090;-1.832;2023-04-06T05:40:56;100046.84;;;7.62;100.00
51849;BME280;38952;51.090;-1.832;2023-04-06T05:43:21;100040.06;;;7.64;100.00
51849;BME280;38952;51.090;-1.832;2023-04-06T05:45:49;100033.03;;;7.68;100.00
51849;BME280;38952;51.090;-1.832;2023-04-06T05:48:34;100037.06;;;7.61;100.00
51849;BME280;38952;51.090;-1.832;2023-04-06T05:51:00;100062.34;;;7.61;100.00
51849;BME280;38952;51.090;-1.832;2023-04-06T05:53:26;100059.38;;;7.63;100.00
51849;BME280;38952;51.090;-1.832;2023-04-06T05:55:51;100066.00;;;7.72;100.00
51849;BME280;38952;51.090;-1.832;2023-04-06T05:58:17;100057.13;;;7.82;100.00
51849;BME280;38952;51.090;-1.832;2023-04-06T06:00:42;100073.66;;;8.02;100.00
51849;BME280;38952;51.090;-1.832;2023-04-06T06:03:11;100056.00;;;8.05;100.00
51849;BME280;38952;51.090;-1.832;2023-04-06T06:05:37;100078.44;;;8.17;100.00
51849;BME280;38952;51.090;-1.832;2023-04-06T06:08:02;100080.72;;;8.31;100.00
51849;BME280;38952;51.090;-1.832;2023-04-06T06:10:27;100082.97;;;8.39;100.00
51849;BME280;38952;51.090;-1.832;2023-04-06T06:12:53;100077.34;;;8.46;100.00
51849;BME280;38952;51.090;-1.832;2023-04-06T06:15:18;100082.03;;;8.55;100.00
51849;BME280;38952;51.090;-1.832;2023-04-06T06:17:44;100091.09;;;8.61;100.00
51849;BME280;38952;51.090;-1.832;2023-04-06T06:20:10;100070.06;;;8.56;100.00
51849;BME280;38952;51.090;-1.832;2023-04-06T06:22:35;100085.38;;;8.63;100.00
51849;BME280;38952;51.090;-1.832;2023-04-06T06:25:02;100085.41;;;8.68;100.00
51849;BME280;38952;51.090;-1.832;2023-04-06T06:27:27;100093.63;;;8.73;100.00
51849;BME280;38952;51.090;-1.832;2023-04-06T06:29:53;100101.03;;;8.78;100.00
51849;BME280;38952;51.090;-1.832;2023-04-06T06:32:18;100097.47;;;8.77;100.00
51849;BME280;38952;51.090;-1.832;2023-04-06T06:34:44;100106.78;;;8.81;100.00
51849;BME280;38952;51.090;-1.832;2023-04-06T06:37:09;100095.34;;;8.84;100.00
51849;BME280;38952;51.090;-1.832;2023-04-06T06:39:35;100108.16;;;8.84;100.00
51849;BME280;38952;51.090;-1.832;2023-04-06T06:42:00;100102.72;;;8.84;100.00
51849;BME280;38952;51.090;-1.832;2023-04-06T06:44:27;100103.00;;;8.87;100.00
51849;BME280;38952;51.090;-1.832;2023-04-06T06:46:52;100091.00;;;8.88;100.00
51849;BME280;38952;51.090;-1.832;2023-04-06T06:49:19;100097.00;;;8.90;100.00
51849;BME280;38952;51.090;-1.832;2023-04-06T06:51:45;100093.78;;;8.94;100.00
51849;BME280;38952;51.090;-1.832;2023-04-06T06:54:12;100105.41;;;9.21;100.00
51849;BME280;38952;51.090;-1.832;2023-04-06T06:56:38;100120.81;;;9.48;100.00
51849;BME280;38952;51.090;-1.832;2023-04-06T06:59:04;100107.44;;;9.52;99.93
51849;BME280;38952;51.090;-1.832;2023-04-06T07:01:37;100109.38;;;9.61;98.43
51849;BME280;38952;51.090;-1.832;2023-04-06T07:04:06;100110.50;;;9.71;97.17
51849;BME280;38952;51.090;-1.832;2023-04-06T07:06:57;100082.63;;;9.64;95.94
51849;BME280;38952;51.090;-1.832;2023-04-06T07:09:35;100112.97;;;9.67;96.24
51849;BME280;38952;51.090;-1.832;2023-04-06T07:12:00;100100.06;;;9.52;97.39
51849;BME280;38952;51.090;-1.832;2023-04-06T07:14:37;100113.81;;;9.73;96.94
51849;BME280;38952;51.090;-1.832;2023-04-06T07:38:41;100113.94;;;10.29;92.52
51849;BME280;38952;51.090;-1.832;2023-04-06T07:41:43;100081.38;;;10.02;92.53
51849;BME280;38952;51.090;-1.832;2023-04-06T07:48:56;100135.22;;;10.12;91.45
51849;BME280;38952;51.090;-1.832;2023-04-06T07:55:08;100092.88;;;10.20;91.22
51849;BME280;38952;51.090;-1.832;2023-04-06T08:50:13;100201.78;;;18.40;50.78
51849;BME280;38952;51.090;-1.832;2023-04-06T08:56:10;100203.59;;;18.44;48.22
51849;BME280;38952;51.090;-1.832;2023-04-06T09:06:13;100198.91;;;20.64;42.87
51849;BME280;38952;51.090;-1.832;2023-04-06T09:09:04;100203.41;;;19.67;44.66
51849;BME280;38952;51.090;-1.832;2023-04-06T09:14:41;100186.25;;;22.04;40.35
51849;BME280;38952;51.090;-1.832;2023-04-06T09:17:19;100199.69;;;22.14;39.02
51849;BME280;38952;51.090;-1.832;2023-04-06T09:19:59;100171.56;;;19.82;42.90
51849;BME280;38952;51.090;-1.832;2023-04-06T09:26:22;100219.47;;;25.68;32.77
51849;BME280;38952;51.090;-1.832;2023-04-06T09:28:55;100173.88;;;22.55;35.82
51849;BME280;38952;51.090;-1.832;2023-04-06T09:31:30;100182.66;;;23.58;35.27
51849;BME280;38952;51.090;-1.832;2023-04-06T09:34:21;100176.00;;;24.49;32.91
51849;BME280;38952;51.090;-1.832;2023-04-06T09:40:50;100197.81;;;25.65;32.83
51849;BME280;38952;51.090;-1.832;2023-04-06T09:43:51;100195.06;;;27.50;29.22
51849;BME280;38952;51.090;-1.832;2023-04-06T09:46:34;100186.50;;;25.57;30.78
51849;BME280;38952;51.090;-1.832;2023-04-06T09:53:26;100190.38;;;20.27;41.50
51849;BME280;38952;51.090;-1.832;2023-04-06T10:15:59;100216.81;;;16.22;53.05
51849;BME280;38952;51.090;-1.832;2023-04-06T10:50:18;100200.19;;;15.11;55.67
51849;BME280;38952;51.090;-1.832;2023-04-06T10:53:07;100221.84;;;14.99;54.68
51849;BME280;38952;51.090;-1.832;2023-04-06T10:59:35;100215.19;;;15.19;55.23
51849;BME280;38952;51.090;-1.832;2023-04-06T11:05:27;100217.09;;;17.17;48.97
51849;BME280;38952;51.090;-1.832;2023-04-06T11:11:54;100214.97;;;14.44;54.27
51849;BME280;38952;51.090;-1.832;2023-04-06T11:15:02;100245.81;;;13.98;56.56
51849;BME280;38952;51.090;-1.832;2023-04-06T13:09:46;100222.25;;;21.05;38.70
51849;BME280;38952;51.090;-1.832;2023-04-06T13:15:51;100254.09;;;19.20;39.39
51849;BME280;38952;51.090;-1.832;2023-04-06T13:19:00;100211.59;;;21.41;37.30
51849;BME280;38952;51.090;-1.832;2023-04-06T13:38:42;100258.19;;;28.71;23.12
51849;BME280;38952;51.090;-1.832;2023-04-06T14:05:22;100283.59;;;33.70;18.50
51849;BME280;38952;51.090;-1.832;2023-04-06T14:07:59;100275.78;;;33.78;17.90
51849;BME280;38952;51.090;-1.832;2023-04-06T14:10:24;100246.03;;;30.02;20.99
51849;BME280;38952;51.090;-1.832;2023-04-06T14:16:08;100267.06;;;31.85;19.41
51849;BME280;38952;51.090;-1.832;2023-04-06T14:18:43;100264.81;;;30.85;20.60
51849;BME280;38952;51.090;-1.832;2023-04-06T14:21:09;100249.75;;;28.75;21.23
51849;BME280;38952;51.090;-1.832;2023-04-06T14:23:44;100236.84;;;27.56;23.72
51849;BME280;38952;51.090;-1.832;2023-04-06T14:26:21;100289.09;;;30.21;21.74
51849;BME280;38952;51.090;-1.832;2023-04-06T16:34:00;100297.53;;;18.41;39.39
51849;BME280;38952;51.090;-1.832;2023-04-06T16:36:45;100315.84;;;18.77;37.89
51849;BME280;38952;51.090;-1.832;2023-04-06T16:49:51;100326.25;;;15.14;46.32
51849;BME280;38952;51.090;-1.832;2023-04-06T16:52:16;100322.00;;;15.22;45.15
51849;BME280;38952;51.090;-1.832;2023-04-06T16:54:44;100318.31;;;14.75;46.05
51849;BME280;38952;51.090;-1.832;2023-04-06T16:57:10;100348.88;;;14.49;47.25
51849;BME280;38952;51.090;-1.832;2023-04-06T16:59:35;100346.56;;;13.84;51.83
51849;BME280;38952;51.090;-1.832;2023-04-06T17:02:10;100348.88;;;12.97;54.54
51849;BME280;38952;51.090;-1.832;2023-04-06T17:04:53;100372.41;;;12.48;57.45
51849;BME280;38952;51.090;-1.832;2023-04-06T17:07:18;100352.81;;;11.79;62.74
51849;BME280;38952;51.090;-1.832;2023-04-06T17:09:54;100337.72;;;10.94;65.29
51849;BME280;38952;51.090;-1.832;2023-04-06T17:12:20;100344.63;;;10.34;67.32
51849;BME280;38952;51.090;-1.832;2023-04-06T17:14:45;100353.09;;;9.84;71.11
51849;BME280;38952;51.090;-1.832;2023-04-06T17:17:13;100348.06;;;9.71;74.07
51849;BME280;38952;51.090;-1.832;2023-04-06T17:19:44;100369.66;;;10.15;73.84
51849;BME280;38952;51.090;-1.832;2023-04-06T17:22:15;100400.63;;;10.84;72.79
51849;BME280;38952;51.090;-1.832;2023-04-06T17:24:52;100390.31;;;11.22;72.47
51849;BME280;38952;51.090;-1.832;2023-04-06T17:27:22;100406.78;;;11.48;71.56
51849;BME280;38952;51.090;-1.832;2023-04-06T17:29:59;100396.41;;;11.55;71.52
51849;BME280;38952;51.090;-1.832;2023-04-06T17:32:50;100415.56;;;11.70;71.60
51849;BME280;38952;51.090;-1.832;2023-04-06T17:35:16;100408.44;;;11.85;71.49
51849;BME280;38952;51.090;-1.832;2023-04-06T17:37:41;100408.16;;;11.92;71.54
51849;BME280;38952;51.090;-1.832;2023-04-06T17:40:09;100384.88;;;11.79;71.66
51849;BME280;38952;51.090;-1.832;2023-04-06T17:42:35;100402.41;;;11.83;70.97
51849;BME280;38952;51.090;-1.832;2023-04-06T17:45:00;100431.97;;;11.91;70.99
51849;BME280;38952;51.090;-1.832;2023-04-06T17:47:26;100428.97;;;11.72;70.57
51849;BME280;38952;51.090;-1.832;2023-04-06T17:50:02;100458.56;;;11.65;70.50
51849;BME280;38952;51.090;-1.832;2023-04-06T17:52:33;100443.44;;;11.26;70.28
51849;BME280;38952;51.090;-1.832;2023-04-06T17:55:10;100458.69;;;11.07;71.03
51849;BME280;38952;51.090;-1.832;2023-04-06T17:58:08;100439.31;;;10.55;72.06
51849;BME280;38952;51.090;-1.832;2023-04-06T18:00:37;100415.06;;;10.26;72.57
51849;BME280;38952;51.090;-1.832;2023-04-06T18:03:25;100441.56;;;10.63;73.02
51849;BME280;38952;51.090;-1.832;2023-04-06T18:05:56;100458.22;;;11.35;71.88
51849;BME280;38952;51.090;-1.832;2023-04-06T18:08:46;100432.81;;;11.66;70.97
51849;BME280;38952;51.090;-1.832;2023-04-06T18:11:19;100459.41;;;12.12;70.20
51849;BME280;38952;51.090;-1.832;2023-04-06T18:13:46;100462.16;;;12.07;69.59
51849;BME280;38952;51.090;-1.832;2023-04-06T18:16:12;100442.94;;;12.22;69.39
51849;BME280;38952;51.090;-1.832;2023-04-06T18:18:45;100459.41;;;12.22;68.95
51849;BME280;38952;51.090;-1.832;2023-04-06T18:21:16;100463.75;;;11.87;69.21
51849;BME280;38952;51.090;-1.832;2023-04-06T18:24:02;100461.56;;;11.48;69.42
51849;BME280;38952;51.090;-1.832;2023-04-06T18:26:47;100445.34;;;11.21;70.39
51849;BME280;38952;51.090;-1.832;2023-04-06T18:29:13;100455.09;;;10.96;70.87
51849;BME280;38952;51.090;-1.832;2023-04-06T18:31:38;100464.03;;;10.71;71.67
51849;BME280;38952;51.090;-1.832;2023-04-06T18:34:04;100462.22;;;10.39;72.94
51849;BME280;38952;51.090;-1.832;2023-04-06T18:36:31;100470.25;;;10.23;73.28
51849;BME280;38952;51.090;-1.832;2023-04-06T18:38:57;100481.66;;;10.10;73.68
51849;BME280;38952;51.090;-1.832;2023-04-06T18:41:25;100462.91;;;9.91;73.97
51849;BME280;38952;51.090;-1.832;2023-04-06T18:43:54;100465.63;;;9.86;74.34
51849;BME280;38952;51.090;-1.832;2023-04-06T18:46:25;100477.31;;;9.82;74.39
51849;BME280;38952;51.090;-1.832;2023-04-06T18:48:50;100502.81;;;9.92;74.96
51849;BME280;38952;51.090;-1.832;2023-04-06T18:51:18;100496.28;;;9.93;74.94
51849;BME280;38952;51.090;-1.832;2023-04-06T18:53:46;100496.81;;;9.95;75.06
51849;BME280;38952;51.090;-1.832;2023-04-06T18:56:23;100495.13;;;9.89;75.14
51849;BME280;38952;51.090;-1.832;2023-04-06T18:58:48;100505.59;;;9.98;75.53
51849;BME280;38952;51.090;-1.832;2023-04-06T19:12:03;100513.06;;;9.03;78.35
51849;BME280;38952;51.090;-1.832;2023-04-06T20:36:02;100591.28;;;7.14;87.00
51849;BME280;38952;51.090;-1.832;2023-04-06T20:45:55;100603.81;;;7.15;85.94
51849;BME280;38952;51.090;-1.832;2023-04-06T20:59:12;100637.63;;;7.20;87.61
51849;BME280;38952;51.090;-1.832;2023-04-06T21:30:25;100651.19;;;6.06;92.29
51849;BME280;38952;51.090;-1.832;2023-04-06T21:36:21;100614.44;;;5.73;93.35
51849;BME280;38952;51.090;-1.832;2023-04-06T22:03:11;100653.72;;;5.34;95.82
51849;BME280;38952;51.090;-1.832;2023-04-06T22:13:22;100637.34;;;5.03;95.96
51849;BME280;38952;51.090;-1.832;2023-04-06T22:19:42;100631.94;;;5.03;95.62
51849;BME280;38952;51.090;-1.832;2023-04-06T22:29:11;100625.44;;;4.86;95.44
51849;BME280;38952;51.090;-1.832;2023-04-06T22:49:25;100690.34;;;4.99;95.97
51849;BME280;38952;51.090;-1.832;2023-04-06T22:51:50;100660.75;;;4.79;96.13
51849;BME280;38952;51.090;-1.832;2023-04-06T22:54:19;100677.09;;;4.91;96.16
51849;BME280;38952;51.090;-1.832;2023-04-06T22:57:12;100679.84;;;4.84;96.62
51849;BME280;38952;51.090;-1.832;2023-04-06T22:59:42;100699.81;;;4.90;96.29
51849;BME280;38952;51.090;-1.832;2023-04-06T23:02:31;100710.66;;;4.90;96.65
51849;BME280;38952;51.090;-1.832;2023-04-06T23:07:58;100675.66;;;4.63;96.40
51849;BME280;38952;51.090;-1.832;2023-04-06T23:10:24;100708.84;;;4.84;96.43
51849;BME280;38952;51.090;-1.832;2023-04-06T23:12:52;100689.34;;;4.68;95.99
51849;BME280;38952;51.090;-1.832;2023-04-06T23:15:17;100713.25;;;4.78;95.85
51849;BME280;38952;51.090;-1.832;2023-04-06T23:17:43;100705.56;;;4.75;96.37
51849;BME280;38952;51.090;-1.832;2023-04-06T23:20:08;100703.53;;;4.70;95.80
51849;BME280;38952;51.090;-1.832;2023-04-06T23:22:43;100706.06;;;4.65;95.83
51849;BME280;38952;51.090;-1.832;2023-04-06T23:25:08;100722.28;;;4.72;96.01
51849;BME280;38952;51.090;-1.832;2023-04-06T23:27:46;100724.59;;;4.68;95.97
51849;BME280;38952;51.090;-1.832;2023-04-06T23:30:12;100691.69;;;4.40;96.28
51849;BME280;38952;51.090;-1.832;2023-04-06T23:32:37;100699.59;;;4.34;96.30
51849;BME280;38952;51.090;-1.832;2023-04-06T23:35:03;100699.25;;;4.24;96.40
51849;BME280;38952;51.090;-1.832;2023-04-06T23:37:28;100718.22;;;4.24;97.12
51849;BME280;38952;51.090;-1.832;2023-04-06T23:39:54;100723.41;;;4.19;97.45
51849;BME280;38952;51.090;-1.832;2023-04-06T23:42:23;100705.78;;;4.10;98.14
51849;BME280;38952;51.090;-1.832;2023-04-06T23:44:58;100715.34;;;4.12;97.72
51849;BME280;38952;51.090;-1.832;2023-04-06T23:47:27;100704.56;;;4.06;98.31
51849;BME280;38952;51.090;-1.832;2023-04-06T23:49:59;100698.34;;;3.98;97.75
51849;BME280;38952;51.090;-1.832;2023-04-06T23:52:25;100697.53;;;3.91;98.50
51849;BME280;38952;51.090;-1.832;2023-04-06T23:54:51;100709.44;;;3.90;98.57
51849;BME280;38952;51.090;-1.832;2023-04-06T23:57:19;100704.63;;;3.92;99.04
51849;BME280;38952;51.090;-1.832;2023-04-06T23:59:46;100709.00;;;3.93;98.59
